Time;durP1;ratioP1;P1;durP2;ratioP2;P2;SDS_P1;SDS_P2;PMS_P1;PMS_P2;Temp;Humidity;BMP_temperature;BMP_pressure;BME280_temperature;BME280_humidity;BME280_pressure;Samples;Min_cycle;Max_cycle;Signal;HPM_P1;HPM_P2
2024/01/25 00:02:04;;;;;;;2.55;1.58;;;10.20;99.90;;;;;;5041800;28;20045;-81
2024/01/25 00:04:30;;;;;;;1.25;1.15;;;10.10;99.90;;;;;;5038748;28;20033;-84
2024/01/25 00:06:56;;;;;;;4.72;2.70;;;10.20;99.90;;;;;;5042841;28;20029;-82
2024/01/25 00:09:22;;;;;;;0.95;0.95;;;10.20;99.90;;;;;;5048806;28;20037;-81
2024/01/25 00:11:49;;;;;;;1.42;1.33;;;10.10;99.90;;;;;;5041567;28;20048;-82
2024/01/25 00:14:15;;;;;;;0.20;0.20;;;10.00;99.90;;;;;;5040738;28;20398;-83
2024/01/25 00:16:42;;;;;;;0.20;0.20;;;10.00;99.90;;;;;;5041261;28;20033;-78
2024/01/25 00:19:08;;;;;;;1.30;1.00;;;10.00;99.90;;;;;;5044173;28;20037;-82
2024/01/25 00:21:34;;;;;;;5.78;2.40;;;9.90;99.90;;;;;;5041591;28;20045;-79
2024/01/25 00:24:00;;;;;;;0.55;0.50;;;9.90;99.90;;;;;;5040562;28;20044;-81
2024/01/25 00:26:26;;;;;;;6.82;0.43;;;9.90;99.90;;;;;;5039124;28;20026;-81
2024/01/25 00:28:53;;;;;;;0.70;0.70;;;10.00;99.90;;;;;;5047349;28;20032;-81
2024/01/25 00:31:19;;;;;;;10.43;0.98;;;9.90;99.90;;;;;;5040896;28;20056;-81
2024/01/25 00:33:45;;;;;;;2.05;1.85;;;9.90;99.90;;;;;;5043806;28;20049;-81
2024/01/25 00:36:12;;;;;;;4.22;1.73;;;9.80;99.90;;;;;;5054701;28;20029;-81
2024/01/25 00:38:38;;;;;;;2.05;1.38;;;9.90;99.90;;;;;;5043630;28;20021;-81
2024/01/25 00:41:08;;;;;;;1.75;1.38;;;9.90;99.90;;;;;;5049377;28;20041;-80
2024/01/25 00:43:35;;;;;;;0.77;0.77;;;9.90;99.90;;;;;;5042621;28;20038;-79
2024/01/25 00:46:01;;;;;;;1.80;0.70;;;9.90;99.90;;;;;;5044138;28;20025;-81
2024/01/25 00:48:27;;;;;;;2.63;0.93;;;9.90;99.90;;;;;;5040268;28;20036;-79
2024/01/25 00:50:54;;;;;;;0.68;0.68;;;9.80;99.90;;;;;;5043323;28;20490;-80
2024/01/25 00:53:20;;;;;;;3.13;0.90;;;9.80;99.90;;;;;;5041622;28;20034;-80
2024/01/25 00:55:47;;;;;;;1.60;1.45;;;9.80;99.90;;;;;;5044051;28;20021;-81
2024/01/25 00:58:13;;;;;;;11.90;0.55;;;9.90;99.90;;;;;;5041423;28;20024;-81
2024/01/25 01:00:40;;;;;;;0.90;0.77;;;10.00;99.90;;;;;;5039976;28;20068;-80
2024/01/25 01:03:07;;;;;;;1.08;0.77;;;9.90;99.90;;;;;;5056979;28;20033;-81
2024/01/25 01:05:34;;;;;;;16.42;3.60;;;9.90;99.90;;;;;;5043610;28;20037;-79
2024/01/25 01:08:00;;;;;;;0.10;0.10;;;9.90;99.90;;;;;;5039419;28;20040;-80
2024/01/25 01:10:26;;;;;;;1.42;0.82;;;9.80;99.90;;;;;;5042345;28;20037;-79
2024/01/25 01:12:54;;;;;;;0.32;0.32;;;9.80;99.90;;;;;;5042008;28;20042;-80
2024/01/25 01:15:20;;;;;;;1.70;1.33;;;9.80;99.90;;;;;;5041512;28;20036;-79
2024/01/25 01:17:46;;;;;;;1.13;1.02;;;9.80;99.90;;;;;;5040163;28;20033;-82
2024/01/25 01:20:12;;;;;;;3.72;3.28;;;9.70;99.90;;;;;;5038124;28;20454;-82
2024/01/25 01:22:38;;;;;;;3.20;1.17;;;9.70;99.90;;;;;;5040892;28;20037;-81
2024/01/25 01:25:05;;;;;;;8.70;0.77;;;9.70;99.90;;;;;;5040154;28;20474;-80
2024/01/25 01:27:31;;;;;;;0.28;0.28;;;9.60;99.90;;;;;;5038579;28;20030;-81
2024/01/25 01:29:57;;;;;;;0.70;0.70;;;9.60;99.90;;;;;;5045286;28;20245;-80
2024/01/25 01:32:23;;;;;;;4.25;0.73;;;9.50;99.90;;;;;;5040504;28;20029;-81
2024/01/25 01:34:50;;;;;;;0.13;0.13;;;9.40;99.90;;;;;;5042978;28;20026;-80
2024/01/25 01:37:16;;;;;;;5.47;1.00;;;9.30;99.90;;;;;;5041507;28;20048;-80
2024/01/25 01:39:42;;;;;;;2.58;1.38;;;9.30;99.90;;;;;;5042046;28;20021;-79
2024/01/25 01:42:09;;;;;;;1.00;0.77;;;9.30;99.90;;;;;;5039936;28;20049;-80
2024/01/25 01:44:35;;;;;;;4.28;0.47;;;9.30;99.90;;;;;;5039444;28;20040;-80
2024/01/25 01:47:01;;;;;;;0.30;0.30;;;9.30;99.90;;;;;;5058579;28;20392;-83
2024/01/25 01:49:27;;;;;;;0.65;0.65;;;9.40;99.90;;;;;;5042800;28;20021;-79
2024/01/25 01:51:54;;;;;;;1.88;0.75;;;9.50;99.90;;;;;;5037961;28;20489;-81
2024/01/25 01:54:20;;;;;;;6.53;3.05;;;9.50;99.90;;;;;;5041461;28;20024;-81
2024/01/25 01:56:46;;;;;;;0.50;0.50;;;9.40;99.90;;;;;;5047696;28;20037;-79
2024/01/25 01:59:13;;;;;;;0.30;0.30;;;9.40;99.90;;;;;;5040399;28;20431;-80
2024/01/25 02:01:39;;;;;;;1.55;0.68;;;9.40;99.90;;;;;;5038754;28;20049;-77
2024/01/25 02:04:05;;;;;;;0.10;0.10;;;9.40;96.10;;;;;;5037687;28;20037;-81
2024/01/25 02:06:32;;;;;;;2.50;0.93;;;9.50;83.90;;;;;;5042044;28;20458;-81
2024/01/25 02:08:58;;;;;;;0.10;0.10;;;9.50;82.20;;;;;;5038654;28;20556;-79
2024/01/25 02:11:25;;;;;;;4.82;1.42;;;9.50;88.60;;;;;;5037213;28;20025;-80
2024/01/25 02:13:52;;;;;;;0.20;0.20;;;9.50;94.80;;;;;;5038422;28;20475;-82
2024/01/25 02:16:19;;;;;;;4.57;0.68;;;9.40;98.00;;;;;;5043365;28;20033;-81
2024/01/25 02:18:47;;;;;;;0.50;0.50;;;9.40;99.80;;;;;;5040022;28;20021;-81
2024/01/25 02:21:13;;;;;;;12.93;1.75;;;9.40;91.90;;;;;;5039430;28;20041;-79
2024/01/25 02:23:39;;;;;;;1.30;0.82;;;9.40;89.70;;;;;;5038207;28;20036;-78
2024/01/25 02:26:05;;;;;;;6.40;1.50;;;9.40;94.80;;;;;;5040802;28;20053;-80
2024/01/25 02:28:32;;;;;;;0.43;0.43;;;9.40;83.30;;;;;;5044664;28;20029;-80
2024/01/25 02:31:01;;;;;;;0.73;0.32;;;9.40;88.40;;;;;;5042628;28;20048;-80
2024/01/25 02:33:27;;;;;;;2.55;1.48;;;9.40;81.70;;;;;;5038360;28;20039;-80
2024/01/25 02:35:53;;;;;;;0.57;0.57;;;9.40;70.90;;;;;;5038268;28;20025;-80
2024/01/25 02:38:20;;;;;;;1.75;1.33;;;9.40;77.50;;;;;;5038533;28;20076;-81
2024/01/25 02:40:46;;;;;;;0.68;0.68;;;9.30;82.40;;;;;;5042310;28;20044;-80
2024/01/25 02:43:12;;;;;;;3.78;0.80;;;9.30;89.70;;;;;;5042752;28;20040;-82
2024/01/25 02:45:38;;;;;;;0.63;0.43;;;9.30;48.60;;;;;;5042004;28;20060;-80
2024/01/25 02:48:04;;;;;;;1.27;0.47;;;9.40;50.00;;;;;;5042768;28;20025;-81
2024/01/25 02:50:31;;;;;;;0.93;0.93;;;9.30;72.60;;;;;;5044380;28;20029;-81
2024/01/25 02:52:58;;;;;;;0.10;0.10;;;9.20;78.80;;;;;;5042181;28;20040;-81
2024/01/25 02:55:24;;;;;;;0.95;0.93;;;9.20;87.80;;;;;;5042106;28;20026;-81
2024/01/25 02:57:50;;;;;;;2.90;1.35;;;9.10;99.90;;;;;;5045140;28;20036;-82
2024/01/25 03:00:16;;;;;;;1.50;1.25;;;9.00;99.90;;;;;;5042648;28;20029;-80
2024/01/25 03:02:42;;;;;;;1.17;1.17;;;9.00;99.20;;;;;;5041586;28;20045;-81
2024/01/25 03:05:08;;;;;;;1.85;1.25;;;9.00;99.90;;;;;;5043811;28;20026;-81
2024/01/25 03:07:34;;;;;;;0.63;0.38;;;9.00;99.90;;;;;;5043460;28;20029;-81
2024/01/25 03:10:01;;;;;;;1.13;0.80;;;9.00;99.90;;;;;;5049826;28;20403;-82
2024/01/25 03:12:27;;;;;;;11.05;0.68;;;8.90;99.90;;;;;;5045035;28;20052;-81
2024/01/25 03:14:53;;;;;;;0.85;0.85;;;8.90;99.90;;;;;;5043147;28;20026;-80
2024/01/25 03:17:19;;;;;;;0.77;0.75;;;8.90;97.60;;;;;;5045491;28;20040;-81
2024/01/25 03:19:45;;;;;;;1.55;0.43;;;8.80;99.90;;;;;;5040931;28;20036;-80
2024/01/25 03:22:11;;;;;;;2.38;1.58;;;8.80;99.90;;;;;;5048480;28;20478;-80
2024/01/25 03:24:41;;;;;;;0.40;0.40;;;8.60;99.90;;;;;;5050408;28;20450;-81
2024/01/25 03:27:13;;;;;;;0.57;0.57;;;8.60;99.90;;;;;;5040663;28;20340;-80
2024/01/25 03:29:43;;;;;;;1.40;1.10;;;8.50;99.90;;;;;;5044573;28;20029;-79
2024/01/25 03:32:12;;;;;;;0.45;0.45;;;8.50;99.90;;;;;;5041556;28;20052;-79
2024/01/25 03:34:38;;;;;;;4.38;2.30;;;8.40;99.90;;;;;;5039824;28;20049;-80
2024/01/25 03:37:05;;;;;;;1.27;1.20;;;8.30;99.90;;;;;;5039973;28;20026;-80
2024/01/25 03:39:31;;;;;;;0.10;0.10;;;8.10;99.90;;;;;;5041846;28;20026;-80
2024/01/25 03:41:57;;;;;;;1.83;0.70;;;8.00;99.90;;;;;;5042681;28;20056;-80
2024/01/25 03:44:23;;;;;;;0.10;0.10;;;7.80;99.90;;;;;;5039827;28;20478;-80
2024/01/25 03:46:50;;;;;;;3.15;1.35;;;7.70;99.90;;;;;;5042239;28;20025;-80
2024/01/25 03:49:16;;;;;;;0.20;0.20;;;7.70;99.90;;;;;;5037874;28;20029;-80
2024/01/25 03:51:42;;;;;;;1.13;1.02;;;7.70;99.90;;;;;;5042469;28;20104;-78
2024/01/25 03:54:08;;;;;;;0.17;0.17;;;7.70;99.90;;;;;;5046371;28;20045;-80
2024/01/25 03:56:34;;;;;;;0.63;0.63;;;7.70;99.90;;;;;;5043160;28;20037;-80
2024/01/25 03:59:01;;;;;;;3.92;1.52;;;7.70;99.90;;;;;;5041350;28;20040;-80
2024/01/25 04:01:27;;;;;;;1.75;1.65;;;7.60;99.90;;;;;;5040417;28;20041;-80
2024/01/25 04:03:53;;;;;;;0.55;0.55;;;7.50;99.90;;;;;;5042913;28;20044;-80
2024/01/25 04:06:19;;;;;;;0.32;0.20;;;7.50;99.90;;;;;;5045769;28;20033;-80
2024/01/25 04:08:45;;;;;;;1.88;1.23;;;7.40;99.90;;;;;;5040781;28;20377;-79
2024/01/25 04:11:13;;;;;;;1.65;1.17;;;7.40;99.90;;;;;;5045062;28;20354;-81
2024/01/25 04:13:40;;;;;;;6.72;1.95;;;7.40;99.90;;;;;;5043325;28;20474;-81
2024/01/25 04:16:06;;;;;;;0.77;0.70;;;7.40;99.90;;;;;;5040918;28;20373;-80
2024/01/25 04:18:32;;;;;;;1.23;1.13;;;7.30;99.90;;;;;;5041078;28;20322;-80
2024/01/25 04:21:00;;;;;;;1.45;1.05;;;7.20;1.00;;;;;;5040946;28;20037;-80
2024/01/25 04:23:26;;;;;;;0.65;0.65;;;7.10;1.00;;;;;;5039639;28;20037;-79
2024/01/25 04:25:55;;;;;;;0.10;0.10;;;7.10;1.00;;;;;;5039942;28;20021;-79
2024/01/25 04:28:21;;;;;;;0.75;0.68;;;7.00;1.00;;;;;;5039664;28;20041;-79
2024/01/25 04:30:47;;;;;;;4.28;1.45;;;7.00;1.00;;;;;;5041935;28;20479;-79
2024/01/25 04:33:13;;;;;;;2.85;1.50;;;6.90;1.00;;;;;;5041245;28;20033;-80
2024/01/25 04:35:39;;;;;;;1.02;0.98;;;6.70;1.00;;;;;;5046072;28;20036;-80
2024/01/25 04:38:05;;;;;;;0.90;0.90;;;6.70;1.00;;;;;;5058882;28;20035;-79
2024/01/25 04:40:32;;;;;;;2.90;1.05;;;6.70;1.00;;;;;;5045297;28;20395;-80
2024/01/25 04:42:58;;;;;;;0.32;0.32;;;6.60;1.00;;;;;;5037893;28;20037;-79
2024/01/25 04:45:24;;;;;;;0.52;0.52;;;6.50;1.00;;;;;;5043913;28;20041;-79
2024/01/25 04:47:51;;;;;;;0.17;0.17;;;6.50;1.00;;;;;;5042362;28;20394;-80
2024/01/25 04:50:17;;;;;;;0.30;0.30;;;6.40;2.70;;;;;;5040886;28;20533;-79
2024/01/25 04:52:43;;;;;;;0.95;0.95;;;6.30;13.30;;;;;;5042865;28;20397;-80
2024/01/25 04:55:09;;;;;;;0.47;0.47;;;6.30;41.50;;;;;;5039632;28;20155;-79
2024/01/25 04:57:35;;;;;;;2.63;1.20;;;6.20;41.40;;;;;;5048271;28;20037;-80
2024/01/25 05:00:02;;;;;;;1.70;1.60;;;6.20;32.20;;;;;;5040975;28;20462;-81
2024/01/25 05:02:28;;;;;;;0.52;0.52;;;6.10;41.70;;;;;;5036925;28;20430;-81
2024/01/25 05:04:55;;;;;;;0.10;0.10;;;6.20;58.70;;;;;;5038241;28;20029;-82
2024/01/25 05:07:22;;;;;;;1.27;1.13;;;6.20;79.50;;;;;;5040343;28;20033;-80
2024/01/25 05:09:48;;;;;;;0.77;0.77;;;6.20;92.80;;;;;;5042800;28;20025;-80
2024/01/25 05:12:14;;;;;;;0.10;0.10;;;6.10;95.30;;;;;;5043534;28;20041;-80
2024/01/25 05:14:40;;;;;;;3.72;1.48;;;6.10;99.90;;;;;;5048845;28;20029;-80
2024/01/25 05:17:06;;;;;;;1.02;1.02;;;6.00;99.90;;;;;;5048097;28;20048;-82
2024/01/25 05:19:33;;;;;;;4.65;2.38;;;6.00;99.90;;;;;;5042704;28;20026;-81
2024/01/25 05:21:59;;;;;;;0.30;0.30;;;5.90;99.90;;;;;;5041250;28;20033;-82
2024/01/25 05:24:25;;;;;;;2.17;0.68;;;6.00;99.90;;;;;;5045380;28;20542;-84
2024/01/25 05:26:51;;;;;;;0.25;0.25;;;6.10;99.90;;;;;;5039807;28;20029;-82
2024/01/25 05:29:17;;;;;;;1.27;0.63;;;6.20;99.90;;;;;;5038036;28;20025;-83
2024/01/25 05:31:44;;;;;;;2.17;1.65;;;6.20;99.90;;;;;;5044237;28;20024;-82
2024/01/25 05:34:10;;;;;;;4.43;1.35;;;6.30;99.90;;;;;;5040243;28;20041;-82
2024/01/25 05:36:36;;;;;;;0.47;0.43;;;6.50;99.90;;;;;;5039906;28;20037;-82
2024/01/25 05:39:06;;;;;;;0.65;0.65;;;6.60;99.90;;;;;;5037886;28;20041;-84
2024/01/25 05:41:33;;;;;;;4.38;2.85;;;6.70;99.90;;;;;;5040915;28;20052;-81
2024/01/25 05:44:00;;;;;;;0.68;0.68;;;6.80;98.20;;;;;;5034362;28;20041;-82
2024/01/25 05:46:26;;;;;;;0.20;0.20;;;6.90;89.30;;;;;;5038335;28;20033;-82
2024/01/25 05:48:52;;;;;;;1.35;1.25;;;6.90;79.90;;;;;;5039216;28;20033;-80
2024/01/25 05:51:19;;;;;;;1.30;1.20;;;7.00;59.90;;;;;;5040852;28;20021;-82
2024/01/25 05:53:45;;;;;;;2.95;2.35;;;7.00;48.60;;;;;;5037783;28;20034;-83
2024/01/25 05:56:11;;;;;;;0.10;0.10;;;7.10;36.00;;;;;;5034447;28;20044;-82
2024/01/25 05:58:37;;;;;;;0.40;0.40;;;7.30;11.90;;;;;;5040574;28;20397;-83
2024/01/25 06:01:04;;;;;;;1.42;0.65;;;7.30;1.00;;;;;;5039826;28;20021;-86
2024/01/25 06:03:30;;;;;;;14.20;2.17;;;7.40;1.00;;;;;;5045269;28;20045;-81
2024/01/25 06:05:56;;;;;;;0.90;0.80;;;7.40;1.00;;;;;;5039483;28;20033;-85
2024/01/25 06:08:22;;;;;;;0.32;0.30;;;7.50;1.00;;;;;;5038759;28;20025;-86
2024/01/25 06:10:49;;;;;;;3.42;1.75;;;7.50;1.00;;;;;;5039487;28;20342;-77
2024/01/25 06:13:16;;;;;;;1.05;1.00;;;7.50;1.00;;;;;;5037434;28;20029;-84
2024/01/25 06:15:42;;;;;;;0.50;0.20;;;7.50;1.00;;;;;;5039553;28;20030;-86
2024/01/25 06:18:08;;;;;;;2.20;1.95;;;7.50;1.00;;;;;;5041290;28;20052;-85
2024/01/25 06:20:34;;;;;;;4.68;1.75;;;7.50;1.00;;;;;;5035951;28;20029;-84
2024/01/25 06:23:00;;;;;;;0.43;0.40;;;7.40;1.00;;;;;;5045507;28;20378;-86
2024/01/25 06:25:30;;;;;;;0.43;0.43;;;7.40;1.00;;;;;;5043066;28;20044;-86
2024/01/25 06:27:58;;;;;;;1.33;1.25;;;7.40;1.00;;;;;;5041271;28;20029;-86
2024/01/25 06:30:24;;;;;;;0.20;0.20;;;7.30;1.00;;;;;;5045411;28;20037;-87
2024/01/25 06:32:50;;;;;;;1.40;0.73;;;7.40;1.00;;;;;;5037977;28;20376;-78
2024/01/25 06:35:16;;;;;;;0.80;0.80;;;7.40;1.00;;;;;;5040761;28;20026;-84
2024/01/25 06:37:43;;;;;;;2.00;1.85;;;7.30;1.00;;;;;;5042013;28;20458;-85
2024/01/25 06:40:09;;;;;;;0.35;0.35;;;7.40;1.00;;;;;;5039210;28;20029;-85
2024/01/25 06:42:35;;;;;;;2.83;2.05;;;7.40;1.00;;;;;;5033637;28;20617;-85
2024/01/25 06:45:01;;;;;;;5.65;2.75;;;7.40;1.00;;;;;;5037808;28;20327;-84
2024/01/25 06:47:28;;;;;;;1.77;1.67;;;7.40;1.00;;;;;;5040350;28;20116;-86
2024/01/25 06:49:54;;;;;;;0.85;0.85;;;7.40;1.00;;;;;;5036332;28;20030;-84
2024/01/25 06:52:20;;;;;;;0.93;0.93;;;7.20;1.00;;;;;;5036523;28;20040;-86
2024/01/25 06:54:46;;;;;;;0.47;0.47;;;7.10;1.00;;;;;;5037681;28;20370;-84
2024/01/25 06:57:14;;;;;;;0.80;0.80;;;7.10;1.00;;;;;;5034148;28;20033;-85
2024/01/25 06:59:40;;;;;;;0.63;0.60;;;7.00;2.80;;;;;;5053707;28;20045;-86
2024/01/25 07:02:06;;;;;;;0.43;0.43;;;6.90;16.80;;;;;;5041514;28;20021;-80
2024/01/25 07:04:32;;;;;;;1.75;0.90;;;6.80;29.70;;;;;;5053118;28;20041;-85
2024/01/25 07:06:59;;;;;;;0.90;0.90;;;6.80;58.50;;;;;;5038161;28;20025;-85
2024/01/25 07:09:26;;;;;;;0.57;0.57;;;6.70;87.70;;;;;;5039490;28;20370;-83
2024/01/25 07:11:52;;;;;;;1.30;1.10;;;6.70;95.30;;;;;;5037527;28;20037;-82
2024/01/25 07:14:18;;;;;;;1.50;0.98;;;6.70;99.90;;;;;;5036174;28;20112;-86
2024/01/25 07:16:44;;;;;;;0.70;0.70;;;6.70;99.90;;;;;;5040413;28;20025;-83
2024/01/25 07:19:11;;;;;;;5.38;1.65;;;6.80;99.90;;;;;;5039318;28;20036;-85
2024/01/25 07:21:37;;;;;;;0.40;0.40;;;6.80;99.90;;;;;;5040337;28;20025;-85
2024/01/25 07:24:06;;;;;;;2.50;2.08;;;6.80;93.50;;;;;;5034596;28;20049;-85
2024/01/25 07:26:32;;;;;;;7.97;2.38;;;6.80;89.20;;;;;;5040691;28;20029;-85
2024/01/25 07:28:59;;;;;;;0.65;0.65;;;6.80;75.20;;;;;;5036808;28;20031;-83
2024/01/25 07:31:26;;;;;;;0.40;0.40;;;6.90;68.70;;;;;;5045281;28;20029;-79
2024/01/25 07:33:53;;;;;;;5.13;1.63;;;6.90;79.80;;;;;;5039614;28;20059;-79
2024/01/25 07:36:20;;;;;;;1.98;1.48;;;6.90;64.10;;;;;;5042814;28;20033;-79
2024/01/25 07:38:49;;;;;;;1.23;1.13;;;7.00;49.60;;;;;;5041100;28;20063;-79
2024/01/25 07:41:16;;;;;;;11.60;2.45;;;7.00;39.70;;;;;;5042964;28;20651;-78
2024/01/25 07:43:42;;;;;;;4.90;1.73;;;7.00;26.90;;;;;;5040042;28;20378;-78
2024/01/25 07:46:10;;;;;;;0.68;0.68;;;7.10;14.60;;;;;;5036791;28;20037;-78
2024/01/25 07:48:37;;;;;;;0.57;0.57;;;7.10;13.80;;;;;;5041037;28;20037;-79
2024/01/25 07:51:12;;;;;;;0.45;0.45;;;7.10;16.60;;;;;;5041428;28;20037;-78
2024/01/25 07:53:38;;;;;;;0.77;0.77;;;7.10;9.20;;;;;;5042081;28;20036;-79
2024/01/25 07:56:07;;;;;;;7.82;1.27;;;7.10;3.20;;;;;;5036879;28;20032;-79
2024/01/25 07:58:35;;;;;;;10.05;0.75;;;7.20;1.00;;;;;;5044733;28;20481;-79
2024/01/25 08:01:04;;;;;;;0.75;0.60;;;7.20;1.00;;;;;;5039869;28;20370;-78
2024/01/25 08:03:30;;;;;;;0.45;0.45;;;7.20;1.00;;;;;;5042369;28;20037;-78
2024/01/25 08:05:56;;;;;;;0.40;0.40;;;7.10;1.00;;;;;;5041692;28;20029;-78
2024/01/25 08:08:22;;;;;;;0.32;0.32;;;7.10;7.20;;;;;;5038956;28;20040;-78
2024/01/25 08:10:49;;;;;;;6.18;2.15;;;7.10;9.70;;;;;;5042155;28;20040;-79
2024/01/25 08:13:15;;;;;;;4.32;1.60;;;7.20;3.00;;;;;;5045607;28;20033;-79
2024/01/25 08:15:42;;;;;;;0.20;0.20;;;7.20;1.00;;;;;;5042430;28;20029;-79
2024/01/25 08:18:08;;;;;;;2.33;1.65;;;7.20;1.00;;;;;;5037409;28;20029;-79
2024/01/25 08:20:36;;;;;;;0.52;0.52;;;7.10;1.00;;;;;;5042026;28;20326;-79
2024/01/25 08:23:03;;;;;;;2.40;1.20;;;7.20;1.00;;;;;;5037864;28;20037;-79
2024/01/25 08:25:29;;;;;;;0.57;0.57;;;7.30;1.00;;;;;;5041498;28;20048;-79
2024/01/25 08:27:55;;;;;;;1.95;1.83;;;7.50;1.00;;;;;;5038626;28;20036;-79
2024/01/25 08:30:21;;;;;;;4.88;1.73;;;7.60;1.00;;;;;;5041348;28;20486;-78
2024/01/25 08:32:47;;;;;;;0.95;0.90;;;7.60;1.00;;;;;;5043519;28;20044;-79
2024/01/25 08:35:14;;;;;;;0.55;0.52;;;7.60;1.00;;;;;;5042867;28;20386;-79
2024/01/25 08:37:40;;;;;;;7.70;1.55;;;7.60;1.00;;;;;;5039299;28;20034;-79
2024/01/25 08:40:07;;;;;;;2.55;1.35;;;7.60;1.00;;;;;;5043536;28;20052;-79
2024/01/25 08:42:33;;;;;;;0.55;0.55;;;7.70;1.00;;;;;;5038315;28;20037;-79
2024/01/25 08:44:59;;;;;;;3.10;2.53;;;7.80;1.00;;;;;;5040157;28;20495;-79
2024/01/25 08:47:25;;;;;;;7.72;1.67;;;7.90;1.00;;;;;;5044950;28;20033;-79
2024/01/25 08:49:51;;;;;;;6.07;2.38;;;8.00;1.00;;;;;;5039631;28;20037;-80
2024/01/25 08:52:18;;;;;;;1.85;1.55;;;8.10;1.00;;;;;;5041852;28;20056;-79
2024/01/25 08:54:44;;;;;;;1.20;0.98;;;8.10;1.00;;;;;;5052060;28;20044;-79
2024/01/25 08:57:10;;;;;;;2.28;1.73;;;8.10;1.00;;;;;;5043619;28;20374;-79
2024/01/25 08:59:37;;;;;;;3.33;1.33;;;8.30;99.90;;;;;;5039187;28;20033;-79
2024/01/25 09:02:05;;;;;;;1.92;0.98;;;8.40;99.90;;;;;;5045864;28;20071;-79
2024/01/25 09:04:32;;;;;;;0.73;0.73;;;8.40;99.90;;;;;;5038647;28;20052;-79
2024/01/25 09:06:59;;;;;;;5.95;1.25;;;8.50;99.90;;;;;;5045093;28;20025;-79
2024/01/25 09:09:25;;;;;;;0.17;0.17;;;8.60;99.90;;;;;;5041226;28;20127;-79
2024/01/25 09:11:52;;;;;;;0.50;0.50;;;8.60;99.90;;;;;;5041516;28;20035;-78
2024/01/25 09:14:18;;;;;;;0.75;0.75;;;8.60;99.90;;;;;;5037208;28;20036;-78
2024/01/25 09:16:44;;;;;;;2.47;1.10;;;8.60;99.90;;;;;;5041415;28;20051;-78
2024/01/25 09:19:11;;;;;;;0.28;0.28;;;8.70;99.90;;;;;;5037091;28;20052;-79
2024/01/25 09:21:40;;;;;;;7.40;0.85;;;8.80;99.90;;;;;;5038503;28;20363;-79
2024/01/25 09:24:07;;;;;;;2.85;0.93;;;8.90;99.90;;;;;;5037655;28;20370;-79
2024/01/25 09:26:33;;;;;;;0.40;0.40;;;9.00;99.90;;;;;;5039060;28;20045;-79
2024/01/25 09:28:59;;;;;;;1.13;0.80;;;9.00;99.90;;;;;;5039572;28;20029;-79
2024/01/25 09:31:25;;;;;;;1.00;1.00;;;9.10;99.90;;;;;;5040153;28;20025;-79
2024/01/25 09:33:52;;;;;;;0.60;0.45;;;9.20;99.90;;;;;;5038912;28;20041;-80
2024/01/25 09:36:18;;;;;;;0.40;0.40;;;9.30;99.90;;;;;;5039311;28;20042;-80
2024/01/25 09:38:44;;;;;;;1.42;1.02;;;9.30;99.90;;;;;;5040262;28;20032;-80
2024/01/25 09:41:10;;;;;;;0.93;0.93;;;9.40;99.90;;;;;;5037963;28;20060;-80
2024/01/25 09:43:37;;;;;;;1.45;0.63;;;9.40;99.90;;;;;;5045867;28;20037;-81
2024/01/25 09:46:06;;;;;;;3.70;2.63;;;9.50;99.90;;;;;;5040057;28;20028;-81
2024/01/25 09:48:33;;;;;;;3.13;0.75;;;9.50;99.90;;;;;;5038556;28;20046;-81
2024/01/25 09:51:00;;;;;;;7.03;2.80;;;9.60;99.90;;;;;;5038709;28;20041;-80
2024/01/25 09:53:26;;;;;;;5.38;2.08;;;9.50;99.90;;;;;;5036406;28;20044;-81
2024/01/25 09:56:09;;;;;;;1.23;1.13;;;9.60;99.90;;;;;;5040926;28;20033;-80
2024/01/25 09:58:41;;;;;;;0.30;0.30;;;9.70;99.90;;;;;;5040289;28;20030;-80
2024/01/25 10:01:12;;;;;;;0.35;0.35;;;9.80;99.90;;;;;;5041270;28;20037;-80
2024/01/25 10:03:41;;;;;;;0.55;0.55;;;9.90;99.40;;;;;;5036135;28;20033;-80
2024/01/25 10:06:10;;;;;;;2.10;1.30;;;10.00;99.90;;;;;;5038508;28;20373;-80
2024/01/25 10:08:36;;;;;;;6.65;1.02;;;10.00;90.20;;;;;;5043137;28;20041;-81
2024/01/25 10:11:04;;;;;;;0.32;0.32;;;10.00;95.70;;;;;;5038820;28;20033;-80
2024/01/25 10:13:30;;;;;;;7.05;1.95;;;10.10;76.30;;;;;;5037540;28;20033;-81
2024/01/25 10:15:56;;;;;;;0.50;0.50;;;10.10;57.60;;;;;;5039252;28;20029;-81
2024/01/25 10:18:23;;;;;;;9.00;0.65;;;10.10;68.10;;;;;;5038512;28;20030;-81
2024/01/25 10:20:50;;;;;;;1.20;1.10;;;10.10;50.50;;;;;;5038168;28;20029;-81
2024/01/25 10:23:16;;;;;;;2.13;1.95;;;10.10;46.30;;;;;;5040056;28;20366;-79
2024/01/25 10:25:42;;;;;;;1.40;1.30;;;10.20;23.70;;;;;;5036504;28;20036;-80
2024/01/25 10:28:08;;;;;;;6.10;1.25;;;10.20;13.50;;;;;;5038886;28;20036;-79
2024/01/25 10:30:36;;;;;;;1.30;1.20;;;10.20;1.00;;;;;;5041369;28;20044;-79
2024/01/25 10:33:04;;;;;;;0.60;0.60;;;10.10;10.30;;;;;;5038908;28;20032;-81
2024/01/25 10:35:31;;;;;;;4.43;2.80;;;10.20;6.20;;;;;;5040649;28;20033;-78
2024/01/25 10:37:58;;;;;;;0.88;0.88;;;10.20;1.00;;;;;;5039685;28;20034;-80
2024/01/25 10:40:26;;;;;;;4.68;2.05;;;10.20;6.60;;;;;;5037399;28;20029;-80
2024/01/25 10:42:53;;;;;;;0.88;0.85;;;10.30;1.00;;;;;;5043913;28;20040;-80
2024/01/25 10:45:19;;;;;;;7.35;2.08;;;10.30;1.00;;;;;;5044939;28;20072;-80
2024/01/25 10:47:48;;;;;;;1.13;0.85;;;10.20;1.00;;;;;;5037763;28;20048;-78
2024/01/25 10:50:14;;;;;;;3.20;0.68;;;10.10;1.00;;;;;;5043452;28;20045;-78
2024/01/25 10:52:42;;;;;;;2.83;1.58;;;10.10;4.60;;;;;;5038879;28;20028;-78
2024/01/25 10:55:11;;;;;;;0.88;0.88;;;10.10;19.60;;;;;;5039475;28;20377;-79
2024/01/25 10:57:39;;;;;;;5.22;0.50;;;10.10;19.30;;;;;;5037336;28;20025;-79
2024/01/25 11:00:09;;;;;;;0.15;0.15;;;10.20;6.60;;;;;;5039184;28;20041;-79
2024/01/25 11:02:36;;;;;;;0.50;0.50;;;10.20;1.00;;;;;;5040501;28;20033;-78
2024/01/25 11:05:05;;;;;;;1.83;1.05;;;10.20;1.00;;;;;;5043681;28;20041;-77
2024/01/25 11:07:42;;;;;;;0.40;0.40;;;10.20;1.00;;;;;;5045125;28;20037;-79
2024/01/25 11:10:21;;;;;;;4.85;2.15;;;10.20;1.00;;;;;;5039583;28;20037;-79
2024/01/25 11:12:54;;;;;;;1.70;0.80;;;10.30;1.00;;;;;;5039936;28;20025;-79
2024/01/25 11:15:30;;;;;;;1.10;0.73;;;10.40;1.00;;;;;;5041758;28;20041;-78
2024/01/25 11:17:57;;;;;;;2.40;1.05;;;10.30;1.00;;;;;;5044453;28;20029;-79
2024/01/25 11:20:25;;;;;;;2.63;1.38;;;10.20;1.00;;;;;;5055130;28;20459;-79
2024/01/25 11:23:03;;;;;;;0.90;0.90;;;10.30;1.00;;;;;;5041691;28;20029;-80
2024/01/25 11:25:31;;;;;;;1.20;1.10;;;10.20;1.00;;;;;;5043274;28;20037;-80
2024/01/25 11:27:58;;;;;;;4.40;2.17;;;10.30;1.00;;;;;;5041931;28;20351;-80
2024/01/25 11:30:26;;;;;;;2.38;0.73;;;10.50;1.00;;;;;;5038831;28;20022;-80
2024/01/25 11:32:53;;;;;;;5.47;1.35;;;10.60;1.00;;;;;;5039881;28;20021;-80
2024/01/25 11:35:20;;;;;;;0.40;0.40;;;10.60;1.00;;;;;;5043772;28;20037;-80
2024/01/25 11:37:47;;;;;;;2.38;1.27;;;10.60;1.00;;;;;;5046458;28;20040;-81
2024/01/25 11:40:15;;;;;;;5.05;0.68;;;10.70;1.00;;;;;;5039262;28;20052;-81
2024/01/25 11:42:47;;;;;;;0.50;0.50;;;10.70;99.90;;;;;;5039146;28;20490;-80
2024/01/25 11:45:14;;;;;;;2.10;1.60;;;10.70;99.90;;;;;;5041980;28;20044;-80
2024/01/25 11:47:41;;;;;;;0.47;0.30;;;10.70;99.90;;;;;;5042568;28;20025;-81
2024/01/25 11:50:09;;;;;;;7.80;0.52;;;10.60;99.90;;;;;;5042461;28;20060;-81
2024/01/25 11:52:36;;;;;;;5.35;2.80;;;10.60;99.90;;;;;;5038715;28;20033;-81
2024/01/25 11:55:07;;;;;;;1.67;1.50;;;10.50;1.00;;;;;;5041558;28;20052;-80
2024/01/25 11:57:41;;;;;;;0.32;0.28;;;10.60;99.90;;;;;;5041977;28;20025;-80
2024/01/25 12:00:09;;;;;;;2.60;1.95;;;10.70;99.90;;;;;;5041638;28;20032;-80
2024/01/25 12:02:37;;;;;;;0.52;0.43;;;10.80;99.90;;;;;;5054170;28;20386;-81
2024/01/25 12:05:05;;;;;;;0.73;0.73;;;10.90;99.90;;;;;;5051560;28;20033;-79
2024/01/25 12:07:31;;;;;;;16.17;0.60;;;10.90;99.90;;;;;;5043529;28;20381;-80
2024/01/25 12:10:06;;;;;;;2.75;1.55;;;11.00;99.90;;;;;;5044496;28;20037;-79
2024/01/25 12:12:32;;;;;;;2.38;1.05;;;11.00;99.90;;;;;;5040996;28;20034;-80
2024/01/25 12:15:00;;;;;;;4.30;1.63;;;11.10;99.90;;;;;;5040501;28;20029;-80
2024/01/25 12:17:28;;;;;;;0.20;0.20;;;11.10;99.90;;;;;;5040385;28;20044;-80
2024/01/25 12:19:58;;;;;;;1.65;0.98;;;11.20;99.90;;;;;;5040993;28;20025;-80
2024/01/25 12:22:29;;;;;;;0.47;0.47;;;11.50;99.90;;;;;;5040785;28;20443;-80
2024/01/25 12:24:58;;;;;;;;;;;11.70;99.90;;;;;;5038792;28;20033;-80
2024/01/25 12:27:25;;;;;;;0.50;0.50;;;11.90;99.90;;;;;;5038372;28;19920;-79
2024/01/25 12:29:53;;;;;;;0.55;0.47;;;12.10;99.90;;;;;;5044210;28;20025;-79
2024/01/25 12:32:23;;;;;;;0.80;0.63;;;12.10;99.90;;;;;;5042241;28;20446;-79
2024/01/25 12:34:56;;;;;;;2.25;2.05;;;12.10;99.90;;;;;;5049718;28;20040;-79
2024/01/25 12:37:23;;;;;;;2.67;1.05;;;12.10;99.90;;;;;;5039837;28;20042;-80
2024/01/25 12:39:51;;;;;;;3.22;1.73;;;12.10;99.90;;;;;;5045504;28;20092;-79
2024/01/25 12:42:18;;;;;;;1.60;1.50;;;12.10;99.90;;;;;;5042405;28;20048;-79
2024/01/25 12:44:45;;;;;;;3.60;1.17;;;12.10;99.90;;;;;;5048528;28;20040;-79
2024/01/25 12:47:15;;;;;;;1.48;1.35;;;12.30;99.90;;;;;;5042602;28;20410;-79
2024/01/25 12:49:42;;;;;;;0.95;0.80;;;12.20;99.90;;;;;;5044774;28;20056;-79
2024/01/25 12:52:09;;;;;;;0.50;0.50;;;12.10;99.90;;;;;;5038807;28;20037;-78
2024/01/25 12:54:36;;;;;;;1.73;1.63;;;12.20;99.90;;;;;;5043844;28;20040;-79
2024/01/25 12:57:03;;;;;;;0.43;0.43;;;12.40;99.90;;;;;;5036879;28;20033;-80